createdAt,value
2018-08-09T00:01:45.131Z,17.82
2018-08-09T00:04:13.785Z,17.81
2018-08-09T00:06:42.136Z,17.90
2018-08-09T00:09:10.699Z,17.90
2018-08-09T00:11:39.699Z,17.77
2018-08-09T00:14:09.479Z,17.78
2018-08-09T00:16:38.065Z,17.79
2018-08-09T00:19:06.620Z,17.72
2018-08-09T00:21:35.415Z,17.86
2018-08-09T00:24:05.276Z,17.94
2018-08-09T00:26:33.629Z,17.99
2018-08-09T00:29:01.966Z,17.91
2018-08-09T00:31:30.351Z,17.89
2018-08-09T00:33:58.751Z,17.87
2018-08-09T00:36:27.107Z,17.99
2018-08-09T00:38:56.425Z,18.06
2018-08-09T00:41:24.775Z,18.03
2018-08-09T00:43:53.329Z,18.21
2018-08-09T00:46:21.959Z,18.25
2018-08-09T00:48:50.329Z,18.24
2018-08-09T00:51:18.707Z,18.17
2018-08-09T00:53:47.075Z,18.30
2018-08-09T00:56:15.452Z,18.29
2018-08-09T00:58:43.835Z,18.28
2018-08-09T01:01:12.582Z,18.29
2018-08-09T01:03:41.534Z,18.41
2018-08-09T01:06:09.858Z,18.50
2018-08-09T01:08:38.596Z,18.47
2018-08-09T01:11:07.203Z,18.47
2018-08-09T01:13:35.561Z,18.47
2018-08-09T01:16:04.424Z,18.51
2018-08-09T01:18:32.792Z,18.50
2018-08-09T01:21:01.151Z,18.54
2018-08-09T01:23:29.502Z,18.32
2018-08-09T01:25:59.376Z,18.41
2018-08-09T01:28:27.748Z,18.53
2018-08-09T01:30:56.066Z,18.63
2018-08-09T01:33:24.432Z,18.65
2018-08-09T01:35:52.963Z,18.78
2018-08-09T01:38:21.784Z,18.70
2018-08-09T01:40:51.167Z,18.81
2018-08-09T01:43:31.189Z,18.92
2018-08-09T01:46:00.121Z,18.91
2018-08-09T01:48:28.475Z,18.69
2018-08-09T01:50:57.451Z,18.73
2018-08-09T01:53:25.811Z,18.87
2018-08-09T01:55:54.146Z,18.78
2018-08-09T01:58:22.519Z,18.72
2018-08-09T02:00:50.918Z,18.79
2018-08-09T02:03:19.270Z,18.82
2018-08-09T02:05:48.383Z,18.97
2018-08-09T02:08:17.107Z,19.04
2018-08-09T02:10:45.470Z,19.17
2018-08-09T02:13:13.821Z,19.18
2018-08-09T02:15:42.471Z,19.18
2018-08-09T02:18:10.801Z,19.06
2018-08-09T02:20:39.110Z,18.99
2018-08-09T02:23:07.399Z,18.95
2018-08-09T02:25:35.999Z,18.88
2018-08-09T02:28:04.323Z,18.91
2018-08-09T02:30:32.643Z,18.94
2018-08-09T02:33:01.635Z,18.83
2018-08-09T02:35:29.956Z,18.67
2018-08-09T02:37:58.528Z,18.48
2018-08-09T02:40:28.163Z,18.55
2018-08-09T02:42:56.735Z,18.64
2018-08-09T02:45:26.143Z,18.45
2018-08-09T02:47:54.451Z,18.45
2018-08-09T02:50:22.798Z,18.49
2018-08-09T02:52:51.844Z,18.26
2018-08-09T02:55:20.193Z,18.25
2018-08-09T02:57:49.188Z,18.12
2018-08-09T03:00:17.542Z,18.18
2018-08-09T03:02:46.246Z,17.95
2018-08-09T03:05:14.604Z,17.78
2018-08-09T03:07:42.932Z,17.87
2018-08-09T03:10:11.271Z,17.80
2018-08-09T03:12:39.546Z,17.81
2018-08-09T03:15:08.241Z,17.72
2018-08-09T03:17:36.543Z,17.78
2018-08-09T03:20:04.923Z,17.80
2018-08-09T03:22:33.211Z,17.89
2018-08-09T03:25:01.691Z,18.02
2018-08-09T03:27:29.990Z,18.11
2018-08-09T03:29:58.517Z,18.15
2018-08-09T03:32:26.810Z,18.03
2018-08-09T03:34:56.043Z,18.11
2018-08-09T03:37:24.348Z,18.16
2018-08-09T03:39:52.662Z,18.15
2018-08-09T03:42:22.244Z,18.23
2018-08-09T03:44:50.567Z,18.28
2018-08-09T03:47:18.903Z,18.25
2018-08-09T03:49:48.130Z,18.22
2018-08-09T03:52:16.455Z,18.30
2018-08-09T03:54:45.239Z,18.30
2018-08-09T03:57:14.582Z,18.23
2018-08-09T03:59:42.970Z,18.28
2018-08-09T04:02:11.215Z,18.26
2018-08-09T04:04:39.551Z,18.45
2018-08-09T04:07:07.887Z,18.56
2018-08-09T04:09:36.198Z,18.70
2018-08-09T04:12:04.544Z,18.78
2018-08-09T04:14:32.842Z,18.66
2018-08-09T04:17:05.300Z,18.58
2018-08-09T04:19:33.693Z,18.50
2018-08-09T04:22:02.019Z,18.59
2018-08-09T04:24:30.348Z,18.42
2018-08-09T04:26:58.655Z,18.29
2018-08-09T04:29:26.959Z,18.28
2018-08-09T04:31:55.624Z,18.26
2018-08-09T04:34:23.972Z,18.37
2018-08-09T04:36:52.303Z,18.62
2018-08-09T04:39:21.234Z,18.95
2018-08-09T04:41:49.567Z,19.16
2018-08-09T04:44:17.882Z,19.43
2018-08-09T04:46:46.191Z,19.62
2018-08-09T04:49:14.493Z,19.74
2018-08-09T04:51:42.807Z,19.76
2018-08-09T04:54:11.099Z,19.98
2018-08-09T04:56:39.412Z,20.01
2018-08-09T04:59:07.723Z,20.02
2018-08-09T05:01:36.022Z,20.08
2018-08-09T05:04:04.316Z,20.41
2018-08-09T05:06:32.635Z,20.43
2018-08-09T05:09:01.339Z,20.34
2018-08-09T05:11:29.646Z,20.31
2018-08-09T05:13:57.964Z,20.35
2018-08-09T05:16:26.628Z,20.60
2018-08-09T05:18:54.926Z,20.76
2018-08-09T05:21:23.246Z,20.90
2018-08-09T05:23:51.546Z,20.70
2018-08-09T05:26:19.943Z,20.92
2018-08-09T05:28:48.227Z,20.90
2018-08-09T05:31:16.531Z,20.84
2018-08-09T05:33:44.940Z,20.80
2018-08-09T05:36:13.367Z,20.71
2018-08-09T05:38:41.658Z,20.70
2018-08-09T05:41:09.983Z,20.67
2018-08-09T05:43:38.717Z,20.85
2018-08-09T05:46:07.718Z,20.78
2018-08-09T05:48:36.012Z,20.78
2018-08-09T05:51:04.774Z,20.67
2018-08-09T05:53:33.110Z,20.63
2018-08-09T05:56:01.423Z,20.35
2018-08-09T05:58:29.727Z,20.15
2018-08-09T06:00:58.069Z,20.04
2018-08-09T06:03:26.380Z,19.97
2018-08-09T06:05:55.180Z,20.01
2018-08-09T06:08:23.495Z,19.87
2018-08-09T06:10:51.819Z,19.89
2018-08-09T06:13:20.170Z,19.69
2018-08-09T06:15:49.503Z,19.72
2018-08-09T06:18:18.026Z,20.01
2018-08-09T06:20:46.351Z,20.31
2018-08-09T06:23:14.688Z,20.46
2018-08-09T06:25:43.035Z,20.60
2018-08-09T06:28:11.336Z,20.65
2018-08-09T06:30:40.072Z,20.75
2018-08-09T06:33:08.634Z,20.82
2018-08-09T06:35:36.979Z,20.83
2018-08-09T06:38:05.347Z,20.59
2018-08-09T06:40:33.992Z,20.70
2018-08-09T06:43:02.313Z,20.74
2018-08-09T06:45:30.643Z,20.77
2018-08-09T06:47:58.978Z,20.88
2018-08-09T06:50:27.311Z,20.91
2018-08-09T06:52:55.631Z,21.31
2018-08-09T06:55:24.403Z,21.36
2018-08-09T06:57:52.727Z,21.33
2018-08-09T07:00:21.424Z,21.49
2018-08-09T07:02:50.127Z,22.21
2018-08-09T07:05:18.447Z,22.64
2018-08-09T07:07:46.834Z,22.14
2018-08-09T07:10:15.142Z,21.61
2018-08-09T07:12:43.516Z,21.46
2018-08-09T07:15:13.011Z,21.63
2018-08-09T07:17:41.926Z,21.80
2018-08-09T07:20:10.767Z,21.43
2018-08-09T07:22:40.431Z,21.59
2018-08-09T07:25:09.123Z,21.85
2018-08-09T07:27:37.618Z,22.15
2018-08-09T07:30:07.804Z,22.55
2018-08-09T07:32:36.159Z,22.77
2018-08-09T07:35:04.633Z,23.30
2018-08-09T07:37:32.937Z,24.06
2018-08-09T07:40:01.286Z,24.63
2018-08-09T07:42:29.607Z,25.82
2018-08-09T07:44:57.947Z,26.50
2018-08-09T07:47:26.882Z,26.36
2018-08-09T07:49:55.499Z,26.44
2018-08-09T07:52:23.829Z,27.65
2018-08-09T07:54:52.523Z,28.93
2018-08-09T07:57:20.860Z,30.10
2018-08-09T07:59:49.182Z,31.30
2018-08-09T08:02:17.489Z,33.14
2018-08-09T08:04:45.782Z,33.16
2018-08-09T08:07:14.117Z,32.99
2018-08-09T08:09:42.412Z,32.87
2018-08-09T08:12:10.718Z,33.15
2018-08-09T08:14:39.003Z,32.34
2018-08-09T08:17:07.335Z,32.30
2018-08-09T08:19:35.836Z,32.89
2018-08-09T08:22:04.407Z,34.27
2018-08-09T08:24:32.693Z,35.24
2018-08-09T08:27:01.380Z,35.00
2018-08-09T08:29:30.370Z,36.39
2018-08-09T08:31:59.087Z,32.52
2018-08-09T08:34:27.459Z,35.01
2018-08-09T08:36:56.095Z,32.97
2018-08-09T08:39:24.391Z,35.49
2018-08-09T08:41:52.745Z,35.08
2018-08-09T08:44:21.042Z,36.13
2018-08-09T08:46:49.379Z,36.84
2018-08-09T08:49:18.067Z,38.07
2018-08-09T08:51:46.379Z,38.47
2018-08-09T08:54:14.871Z,39.31
2018-08-09T08:56:43.207Z,37.50
2018-08-09T08:59:11.519Z,38.93
2018-08-09T09:01:39.826Z,39.61
2018-08-09T09:04:08.557Z,38.33
2018-08-09T09:06:36.843Z,39.14
2018-08-09T09:09:09.612Z,39.61
2018-08-09T09:11:37.939Z,40.13
2018-08-09T09:14:06.287Z,40.36
2018-08-09T09:16:36.012Z,39.45
2018-08-09T09:19:04.422Z,40.25
2018-08-09T09:21:32.710Z,40.53
2018-08-09T09:24:01.035Z,40.83
2018-08-09T09:26:29.350Z,40.54
2018-08-09T09:28:57.650Z,39.65
2018-08-09T09:31:26.631Z,41.05
2018-08-09T09:33:54.963Z,40.92
2018-08-09T09:36:23.703Z,39.09
2018-08-09T09:38:52.023Z,39.68
2018-08-09T09:41:20.365Z,38.31
2018-08-09T09:43:48.658Z,39.08
2018-08-09T09:46:17.004Z,39.29
2018-08-09T09:48:45.314Z,39.22
2018-08-09T09:51:13.631Z,39.61
2018-08-09T09:53:41.979Z,40.67
2018-08-09T09:56:10.324Z,39.81
2018-08-09T09:58:39.082Z,38.76
2018-08-09T10:01:12.735Z,37.36
2018-08-09T10:03:41.080Z,38.25
2018-08-09T10:06:09.392Z,37.45
2018-08-09T10:08:37.707Z,36.92
2018-08-09T10:11:05.985Z,36.72
2018-08-09T10:13:34.287Z,38.43
2018-08-09T10:16:02.579Z,38.41
2018-08-09T10:18:30.918Z,37.88
2018-08-09T10:20:59.211Z,37.92
2018-08-09T10:23:27.943Z,37.60
2018-08-09T10:25:56.246Z,37.62
2018-08-09T10:28:24.927Z,37.24
2018-08-09T10:30:53.223Z,35.94
2018-08-09T10:33:21.532Z,36.99
2018-08-09T10:35:50.116Z,34.51
2018-08-09T10:38:18.442Z,36.56
2018-08-09T10:40:46.773Z,38.67
2018-08-09T10:43:15.098Z,36.51
2018-08-09T10:45:43.904Z,36.70
2018-08-09T10:48:12.263Z,37.99
2018-08-09T10:50:40.828Z,37.75
2018-08-09T10:53:09.167Z,36.47
2018-08-09T10:55:37.472Z,37.71
2018-08-09T10:58:05.895Z,35.74
2018-08-09T11:00:34.252Z,34.86
2018-08-09T11:03:02.574Z,32.73
2018-08-09T11:05:31.385Z,32.51
2018-08-09T11:07:59.702Z,33.93
2018-08-09T11:10:28.023Z,36.09
2018-08-09T11:12:56.348Z,36.75
2018-08-09T11:15:24.654Z,36.91
2018-08-09T11:17:52.967Z,36.81
2018-08-09T11:20:21.298Z,35.51
2018-08-09T11:22:49.623Z,31.70
2018-08-09T11:25:17.936Z,31.56
2018-08-09T11:27:46.727Z,32.13
2018-08-09T11:30:15.103Z,35.38
2018-08-09T11:32:44.487Z,36.92
2018-08-09T11:35:13.103Z,36.06
2018-08-09T11:37:41.779Z,34.35
2018-08-09T11:40:10.135Z,32.75
2018-08-09T11:42:38.496Z,31.09
2018-08-09T11:45:07.387Z,31.59
2018-08-09T11:47:35.945Z,31.41
2018-08-09T11:50:04.710Z,31.27
2018-08-09T11:52:33.048Z,30.60
2018-08-09T11:55:01.500Z,29.84
2018-08-09T11:57:30.220Z,29.99
2018-08-09T11:59:58.627Z,29.91
2018-08-09T12:02:27.003Z,29.45
2018-08-09T12:04:55.334Z,29.33
2018-08-09T12:07:24.968Z,29.24
2018-08-09T12:09:53.340Z,29.04
2018-08-09T12:12:21.698Z,29.06
2018-08-09T12:14:50.073Z,29.23
2018-08-09T12:17:18.411Z,28.88
2018-08-09T12:19:46.789Z,28.87
2018-08-09T12:22:15.394Z,28.66
2018-08-09T12:24:43.778Z,28.68
2018-08-09T12:27:12.174Z,28.68
2018-08-09T12:29:40.569Z,28.50
2018-08-09T12:32:08.947Z,28.70
2018-08-09T12:34:37.356Z,27.75
2018-08-09T12:37:05.851Z,25.47
2018-08-09T12:39:34.286Z,23.32
2018-08-09T12:42:02.643Z,22.19
2018-08-09T12:44:31.075Z,21.49
2018-08-09T12:46:59.611Z,21.00
2018-08-09T12:49:28.508Z,20.87
2018-08-09T12:51:56.893Z,20.88
2018-08-09T12:54:25.300Z,20.78
2018-08-09T12:56:53.716Z,20.80
2018-08-09T12:59:22.138Z,20.90
2018-08-09T13:01:50.975Z,20.92
2018-08-09T13:04:19.342Z,20.48
2018-08-09T13:06:48.633Z,20.45
2018-08-09T13:09:17.383Z,20.49
2018-08-09T13:11:46.003Z,20.59
2018-08-09T13:14:14.419Z,20.47
2018-08-09T13:16:42.772Z,20.20
2018-08-09T13:19:11.200Z,20.17
2018-08-09T13:21:39.564Z,20.10
2018-08-09T13:24:08.003Z,20.33
2018-08-09T13:26:37.028Z,20.34
2018-08-09T13:29:05.683Z,20.43
2018-08-09T13:31:34.385Z,20.54
2018-08-09T13:34:02.807Z,20.53
2018-08-09T13:36:31.527Z,20.81
2018-08-09T13:38:59.938Z,20.65
2018-08-09T13:41:28.313Z,21.10
2018-08-09T13:43:56.694Z,21.44
2018-08-09T13:46:25.423Z,21.76
2018-08-09T13:48:53.819Z,21.87
2018-08-09T13:51:22.263Z,22.53
2018-08-09T13:53:50.971Z,22.58
2018-08-09T13:56:19.328Z,22.73
2018-08-09T13:58:47.993Z,23.45
2018-08-09T14:01:16.375Z,24.25
2018-08-09T14:03:45.047Z,24.27
2018-08-09T14:06:13.401Z,24.24
2018-08-09T14:08:41.783Z,24.96
2018-08-09T14:11:10.196Z,25.31
2018-08-09T14:13:38.577Z,25.41
2018-08-09T14:16:07.438Z,24.44
2018-08-09T14:18:35.792Z,23.87
2018-08-09T14:21:04.190Z,23.47
2018-08-09T14:23:32.527Z,23.47
2018-08-09T14:26:00.929Z,24.03
2018-08-09T14:28:29.287Z,24.09
2018-08-09T14:30:58.139Z,24.03
2018-08-09T14:33:26.900Z,23.90
2018-08-09T14:35:55.718Z,23.68
2018-08-09T14:38:24.067Z,24.29
2018-08-09T14:40:52.567Z,24.07
2018-08-09T14:43:20.966Z,23.72
2018-08-09T14:45:49.353Z,23.22
2018-08-09T14:48:17.745Z,23.16
2018-08-09T14:50:46.107Z,23.37
2018-08-09T14:53:14.835Z,23.12
2018-08-09T14:55:43.647Z,23.09
2018-08-09T14:58:12.080Z,23.23
2018-08-09T15:00:40.690Z,23.03
2018-08-09T15:03:09.064Z,23.02
2018-08-09T15:05:37.566Z,23.25
2018-08-09T15:08:06.307Z,23.45
2018-08-09T15:10:34.667Z,24.00
2018-08-09T15:13:03.057Z,23.95
2018-08-09T15:15:31.499Z,23.78
2018-08-09T15:17:59.948Z,23.43
2018-08-09T15:20:28.367Z,23.66
2018-08-09T15:22:57.595Z,23.37
2018-08-09T15:25:25.942Z,23.59
2018-08-09T15:27:54.295Z,23.78
2018-08-09T15:30:22.652Z,23.55
2018-08-09T15:32:50.974Z,23.55
2018-08-09T15:35:19.371Z,23.41
2018-08-09T15:37:47.691Z,23.82
2018-08-09T15:40:16.311Z,24.21
2018-08-09T15:42:44.747Z,24.16
2018-08-09T15:45:14.534Z,24.12
2018-08-09T15:47:43.179Z,23.91
2018-08-09T15:50:16.218Z,23.71
2018-08-09T15:52:44.538Z,23.53
2018-08-09T15:55:13.782Z,23.34
2018-08-09T15:57:42.145Z,23.50
2018-08-09T16:00:17.617Z,23.39
2018-08-09T16:02:46.179Z,23.22
2018-08-09T16:05:14.549Z,23.04
2018-08-09T16:07:44.319Z,23.20
2018-08-09T16:10:14.141Z,22.83
2018-08-09T16:12:42.486Z,23.29
2018-08-09T16:15:13.812Z,23.41
2018-08-09T16:17:42.375Z,24.03
2018-08-09T16:20:11.574Z,24.05
2018-08-09T16:22:39.951Z,24.25
2018-08-09T16:25:15.711Z,24.32
2018-08-09T16:27:45.132Z,24.03
2018-08-09T16:30:15.690Z,24.14
2018-08-09T16:32:44.175Z,24.52
2018-08-09T16:35:13.047Z,24.31
2018-08-09T16:37:41.959Z,24.31
2018-08-09T16:40:13.076Z,24.26
2018-08-09T16:42:42.234Z,23.79
2018-08-09T16:45:11.384Z,23.94
2018-08-09T16:47:40.054Z,23.80
2018-08-09T16:50:09.799Z,24.06
2018-08-09T16:52:38.135Z,24.25
2018-08-09T16:55:08.474Z,24.17
2018-08-09T16:57:37.203Z,24.45
2018-08-09T17:00:08.018Z,24.03
2018-08-09T17:02:36.802Z,23.92
2018-08-09T17:05:06.514Z,24.18
2018-08-09T17:07:34.870Z,24.48
2018-08-09T17:10:03.231Z,24.25
2018-08-09T17:12:31.579Z,24.15
2018-08-09T17:14:59.919Z,24.25
2018-08-09T17:17:28.671Z,24.31
2018-08-09T17:19:57.890Z,24.18
2018-08-09T17:22:26.237Z,23.50
2018-08-09T17:24:54.591Z,23.26
2018-08-09T17:27:22.963Z,23.23
2018-08-09T17:29:51.307Z,23.32
2018-08-09T17:32:19.691Z,23.35
2018-08-09T17:34:48.262Z,23.24
2018-08-09T17:37:16.672Z,23.20
2018-08-09T17:39:44.988Z,22.91
2018-08-09T17:42:13.327Z,22.82
2018-08-09T17:44:41.674Z,22.77
2018-08-09T17:47:10.048Z,22.72
2018-08-09T17:49:38.582Z,22.69
2018-08-09T17:52:06.915Z,22.90
2018-08-09T17:54:35.238Z,22.53
2018-08-09T17:57:03.600Z,22.60
2018-08-09T17:59:32.100Z,22.58
2018-08-09T18:02:00.423Z,22.36
2018-08-09T18:04:29.412Z,22.27
2018-08-09T18:06:57.790Z,22.20
2018-08-09T18:09:26.139Z,22.17
2018-08-09T18:11:54.872Z,21.99
2018-08-09T18:14:23.960Z,21.94
2018-08-09T18:16:53.023Z,21.86
2018-08-09T18:19:21.347Z,21.78
2018-08-09T18:21:49.682Z,21.71
2018-08-09T18:24:18.003Z,21.61
2018-08-09T18:26:46.379Z,21.65
2018-08-09T18:29:17.243Z,21.58
2018-08-09T18:31:46.620Z,21.60
2018-08-09T18:34:15.306Z,21.44
2018-08-09T18:36:44.554Z,21.50
2018-08-09T18:39:13.652Z,21.33
2018-08-09T18:41:42.040Z,21.39
2018-08-09T18:44:10.399Z,21.33
2018-08-09T18:46:38.731Z,21.26
2018-08-09T18:49:07.556Z,21.14
2018-08-09T18:51:37.665Z,21.14
2018-08-09T18:54:08.095Z,21.06
2018-08-09T18:56:36.427Z,20.99
2018-08-09T18:59:04.771Z,20.81
2018-08-09T19:01:33.152Z,20.72
2018-08-09T19:04:01.504Z,20.67
2018-08-09T19:06:29.831Z,20.55
2018-08-09T19:08:58.368Z,20.53
2018-08-09T19:11:26.871Z,20.45
2018-08-09T19:13:55.213Z,20.38
2018-08-09T19:16:23.522Z,20.27
2018-08-09T19:18:51.915Z,20.13
2018-08-09T19:21:20.267Z,20.18
2018-08-09T19:23:48.618Z,20.12
2018-08-09T19:26:17.404Z,20.08
2018-08-09T19:28:45.746Z,19.95
2018-08-09T19:31:14.116Z,19.77
2018-08-09T19:33:42.470Z,19.75
2018-08-09T19:36:10.852Z,19.60
2018-08-09T19:38:39.240Z,19.61
2018-08-09T19:41:07.650Z,19.52
2018-08-09T19:43:35.994Z,19.47
2018-08-09T19:46:04.347Z,19.42
2018-08-09T19:48:32.987Z,19.33
2018-08-09T19:51:01.376Z,19.34
2018-08-09T19:53:29.722Z,19.28
2018-08-09T19:55:58.052Z,19.28
2018-08-09T19:58:26.378Z,19.26
2018-08-09T20:00:54.722Z,19.24
2018-08-09T20:03:23.318Z,19.28
2018-08-09T20:05:51.657Z,19.46
2018-08-09T20:08:20.034Z,19.27
2018-08-09T20:10:48.767Z,19.18
2018-08-09T20:13:17.076Z,19.13
2018-08-09T20:15:45.430Z,19.09
2018-08-09T20:18:13.762Z,19.13
2018-08-09T20:20:42.207Z,19.16
2018-08-09T20:23:10.587Z,19.03
2018-08-09T20:25:38.901Z,19.06
2018-08-09T20:28:07.261Z,19.05
2018-08-09T20:30:35.627Z,19.02
2018-08-09T20:33:03.971Z,18.97
2018-08-09T20:35:32.308Z,18.98
2018-08-09T20:38:00.622Z,18.93
2018-08-09T20:40:28.951Z,18.90
2018-08-09T20:42:57.311Z,18.78
2018-08-09T20:45:25.995Z,18.74
2018-08-09T20:47:54.335Z,18.78
2018-08-09T20:50:24.394Z,18.73
2018-08-09T20:52:52.751Z,18.79
2018-08-09T20:55:21.070Z,18.83
2018-08-09T20:57:50.170Z,18.77
2018-08-09T21:00:22.616Z,18.68
2018-08-09T21:02:52.767Z,18.62
2018-08-09T21:05:23.647Z,18.59
2018-08-09T21:07:53.042Z,18.54
2018-08-09T21:10:21.466Z,18.53
2018-08-09T21:12:49.809Z,18.49
2018-08-09T21:15:19.018Z,18.36
2018-08-09T21:17:47.359Z,18.50
2018-08-09T21:20:15.910Z,18.49
2018-08-09T21:22:45.630Z,18.43
2018-08-09T21:25:14.245Z,18.46
2018-08-09T21:27:42.826Z,18.34
2018-08-09T21:30:13.420Z,18.30
2018-08-09T21:32:41.758Z,18.33
2018-08-09T21:35:10.662Z,18.42
2018-08-09T21:37:39.623Z,18.43
2018-08-09T21:40:09.107Z,18.47
2018-08-09T21:42:37.439Z,18.51
2018-08-09T21:45:14.591Z,18.45
2018-08-09T21:47:43.235Z,18.45
2018-08-09T21:50:14.869Z,18.28
2018-08-09T21:52:43.282Z,18.27
2018-08-09T21:55:12.987Z,18.13
2018-08-09T21:57:41.885Z,18.05
2018-08-09T22:00:21.058Z,17.99
2018-08-09T22:02:49.374Z,17.76
2018-08-09T22:05:22.974Z,17.62
2018-08-09T22:07:56.859Z,17.50
2018-08-09T22:10:30.491Z,17.36
2018-08-09T22:13:04.160Z,17.29
2018-08-09T22:15:37.766Z,17.23
2018-08-09T22:18:11.903Z,17.13
2018-08-09T22:22:50.579Z,17.06
2018-08-09T22:25:18.899Z,16.98
2018-08-09T22:27:47.226Z,16.90
2018-08-09T22:30:16.735Z,16.89
2018-08-09T22:32:45.047Z,16.90
2018-08-09T22:35:13.391Z,16.81
2018-08-09T22:37:41.706Z,16.73
2018-08-09T22:40:10.043Z,16.61
2018-08-09T22:42:38.355Z,16.54
2018-08-09T22:45:06.690Z,16.53
2018-08-09T22:47:35.319Z,16.44
2018-08-09T22:50:04.970Z,16.47
2018-08-09T22:52:33.282Z,16.38
2018-08-09T22:55:01.588Z,16.38
2018-08-09T22:57:30.254Z,16.34
2018-08-09T22:59:58.595Z,16.30
2018-08-09T23:02:26.934Z,16.29
2018-08-09T23:04:55.255Z,16.32
2018-08-09T23:07:23.566Z,16.31
2018-08-09T23:09:51.939Z,16.35
2018-08-09T23:12:20.246Z,16.45
2018-08-09T23:14:48.598Z,16.38
2018-08-09T23:17:16.911Z,16.31
2018-08-09T23:19:45.260Z,16.39
2018-08-09T23:22:17.636Z,16.16
2018-08-09T23:24:45.955Z,16.18
2018-08-09T23:27:14.259Z,16.23
2018-08-09T23:29:42.572Z,16.14
2018-08-09T23:32:11.223Z,16.09
2018-08-09T23:34:39.571Z,15.98
2018-08-09T23:37:07.896Z,15.85
2018-08-09T23:39:36.312Z,15.79
2018-08-09T23:42:04.599Z,15.60
2018-08-09T23:44:32.902Z,15.44
2018-08-09T23:47:01.215Z,15.35
2018-08-09T23:49:29.531Z,15.31
2018-08-09T23:51:57.838Z,15.19
2018-08-09T23:54:26.190Z,15.18
2018-08-09T23:56:54.515Z,15.15
2018-08-09T23:59:22.862Z,15.05
